createdAt,value
2019-02-10T00:00:37.732Z,74.09
2019-02-10T00:03:04.447Z,74.36
2019-02-10T00:05:31.144Z,74.61
2019-02-10T00:07:58.036Z,74.50
2019-02-10T00:10:24.664Z,74.60
2019-02-10T00:13:23.722Z,74.63
2019-02-10T00:15:50.304Z,75.04
2019-02-10T00:18:16.800Z,75.35
2019-02-10T00:20:43.424Z,75.68
2019-02-10T00:23:10.220Z,76.06
2019-02-10T00:25:37.138Z,76.28
2019-02-10T00:28:03.627Z,76.70
2019-02-10T00:30:30.158Z,76.81
2019-02-10T00:32:56.704Z,77.01
2019-02-10T00:35:23.172Z,76.78
2019-02-10T00:37:49.721Z,76.94
2019-02-10T00:40:16.485Z,77.15
2019-02-10T00:42:43.231Z,77.40
2019-02-10T00:45:10.029Z,77.70
2019-02-10T00:47:37.719Z,77.88
2019-02-10T00:50:04.505Z,78.42
2019-02-10T00:52:31.111Z,78.83
2019-02-10T00:54:57.620Z,78.92
2019-02-10T00:57:24.309Z,78.89
2019-02-10T00:59:50.792Z,78.57
2019-02-10T01:02:17.321Z,78.46
2019-02-10T01:04:43.838Z,78.24
2019-02-10T01:07:10.446Z,78.32
2019-02-10T01:09:37.042Z,78.32
2019-02-10T01:12:03.559Z,78.07
2019-02-10T01:14:30.124Z,77.86
2019-02-10T01:16:56.672Z,78.02
2019-02-10T01:19:23.162Z,78.10
2019-02-10T01:21:49.821Z,77.98
2019-02-10T01:24:16.371Z,77.92
2019-02-10T01:26:43.056Z,77.88
2019-02-10T01:29:09.690Z,77.71
2019-02-10T01:31:36.331Z,77.73
2019-02-10T01:34:02.973Z,77.90
2019-02-10T01:36:29.596Z,77.71
2019-02-10T01:38:56.527Z,77.94
2019-02-10T01:41:23.004Z,78.50
2019-02-10T01:43:49.832Z,78.72
2019-02-10T01:46:16.305Z,78.94
2019-02-10T01:48:42.909Z,78.70
2019-02-10T01:51:09.543Z,78.67
2019-02-10T01:53:36.382Z,78.63
2019-02-10T01:56:02.881Z,78.57
2019-02-10T01:58:29.661Z,78.71
2019-02-10T02:00:56.179Z,78.78
2019-02-10T02:03:22.996Z,78.94
2019-02-10T02:05:49.541Z,78.83
2019-02-10T02:08:16.022Z,78.64
2019-02-10T02:10:42.891Z,78.86
2019-02-10T02:13:09.358Z,79.14
2019-02-10T02:15:35.892Z,79.33
2019-02-10T02:18:02.431Z,79.57
2019-02-10T02:20:28.966Z,79.58
2019-02-10T02:22:55.531Z,79.68
2019-02-10T02:25:22.134Z,79.56
2019-02-10T02:27:48.649Z,79.54
2019-02-10T02:30:15.207Z,79.52
2019-02-10T02:32:41.893Z,79.55
2019-02-10T02:35:08.729Z,79.06
2019-02-10T02:37:35.353Z,78.98
2019-02-10T02:40:02.232Z,79.30
2019-02-10T02:42:28.724Z,79.16
2019-02-10T02:44:55.255Z,79.26
2019-02-10T02:47:22.119Z,79.36
2019-02-10T02:49:49.190Z,79.23
2019-02-10T02:52:15.695Z,79.68
2019-02-10T02:54:42.229Z,79.65
2019-02-10T02:57:08.733Z,80.07
2019-02-10T02:59:35.290Z,80.31
2019-02-10T03:02:01.795Z,80.36
2019-02-10T03:04:28.357Z,80.68
2019-02-10T03:06:54.906Z,80.35
2019-02-10T03:09:21.538Z,80.53
2019-02-10T03:11:48.413Z,80.47
2019-02-10T03:14:14.930Z,80.45
2019-02-10T03:16:43.842Z,80.70
2019-02-10T03:19:10.414Z,80.49
2019-02-10T03:21:36.911Z,80.88
2019-02-10T03:24:03.819Z,80.86
2019-02-10T03:26:30.509Z,80.69
2019-02-10T03:28:57.070Z,80.45
2019-02-10T03:31:23.666Z,80.46
2019-02-10T03:33:50.177Z,80.44
2019-02-10T03:36:16.725Z,80.21
2019-02-10T03:38:43.368Z,80.22
2019-02-10T03:41:09.857Z,79.96
2019-02-10T03:43:38.405Z,80.11
2019-02-10T03:46:05.227Z,80.43
2019-02-10T03:48:31.933Z,80.41
2019-02-10T03:50:58.668Z,79.99
2019-02-10T03:53:25.790Z,79.73
2019-02-10T03:55:52.855Z,79.61
2019-02-10T03:58:19.604Z,79.32
2019-02-10T04:00:46.653Z,78.75
2019-02-10T04:03:13.343Z,78.44
2019-02-10T04:05:40.088Z,78.63
2019-02-10T04:08:06.662Z,78.32
2019-02-10T04:10:33.150Z,78.30
2019-02-10T04:12:59.854Z,78.19
2019-02-10T04:15:26.636Z,78.01
2019-02-10T04:17:53.773Z,78.08
2019-02-10T04:20:20.282Z,77.72
2019-02-10T04:22:46.763Z,77.15
2019-02-10T04:25:13.623Z,77.11
2019-02-10T04:27:40.197Z,77.08
2019-02-10T04:30:09.212Z,76.98
2019-02-10T04:32:36.090Z,76.85
2019-02-10T04:35:03.068Z,76.46
2019-02-10T04:37:29.909Z,76.26
2019-02-10T04:39:56.678Z,75.95
2019-02-10T04:42:23.527Z,75.74
2019-02-10T04:44:50.093Z,75.41
2019-02-10T04:47:16.740Z,74.93
2019-02-10T04:49:43.258Z,74.49
2019-02-10T04:52:09.821Z,73.89
2019-02-10T04:54:36.314Z,73.64
2019-02-10T04:57:02.897Z,73.44
2019-02-10T04:59:29.437Z,73.23
2019-02-10T05:01:55.887Z,72.91
2019-02-10T05:04:22.427Z,73.12
2019-02-10T05:06:48.984Z,72.71
2019-02-10T05:09:15.850Z,72.46
2019-02-10T05:11:42.344Z,72.37
2019-02-10T05:14:09.220Z,71.80
2019-02-10T05:16:35.714Z,71.29
2019-02-10T05:19:02.331Z,71.41
2019-02-10T05:21:28.833Z,71.03
2019-02-10T05:24:02.973Z,70.61
2019-02-10T05:26:24.374Z,69.98
2019-02-10T05:28:50.843Z,69.57
2019-02-10T05:31:17.824Z,69.66
2019-02-10T05:33:44.330Z,68.82
2019-02-10T05:36:10.922Z,68.65
2019-02-10T05:38:37.717Z,68.30
2019-02-10T05:41:05.129Z,68.27
2019-02-10T05:43:31.677Z,68.24
2019-02-10T05:45:58.215Z,68.39
2019-02-10T05:48:24.785Z,68.20
2019-02-10T05:50:51.323Z,68.27
2019-02-10T05:53:17.845Z,68.13
2019-02-10T05:55:44.324Z,68.08
2019-02-10T05:58:10.857Z,67.51
2019-02-10T06:00:37.381Z,67.18
2019-02-10T06:03:04.623Z,67.23
2019-02-10T06:05:31.344Z,67.29
2019-02-10T06:07:58.210Z,67.41
2019-02-10T06:10:24.714Z,67.73
2019-02-10T06:12:51.693Z,67.67
2019-02-10T06:15:18.183Z,68.23
2019-02-10T06:17:45.155Z,68.78
2019-02-10T06:20:12.250Z,69.10
2019-02-10T06:22:38.818Z,69.03
2019-02-10T06:25:06.009Z,68.92
2019-02-10T06:27:32.861Z,69.54
2019-02-10T06:29:59.404Z,69.45
2019-02-10T06:32:25.981Z,69.56
2019-02-10T06:34:52.486Z,69.61
2019-02-10T06:37:19.093Z,69.88
2019-02-10T06:39:45.681Z,70.34
2019-02-10T06:42:12.636Z,70.36
2019-02-10T06:44:39.140Z,70.72
2019-02-10T06:47:05.923Z,71.02
2019-02-10T06:49:32.563Z,71.66
2019-02-10T06:51:59.207Z,72.04
2019-02-10T06:54:25.982Z,72.37
2019-02-10T06:56:52.518Z,72.90
2019-02-10T06:59:29.613Z,73.04
2019-02-10T07:02:01.593Z,73.38
2019-02-10T07:04:30.101Z,73.51
2019-02-10T07:06:56.756Z,73.51
2019-02-10T07:09:25.866Z,73.93
2019-02-10T07:11:53.173Z,74.06
2019-02-10T07:14:25.630Z,74.03
2019-02-10T07:17:16.248Z,73.87
2019-02-10T07:20:29.840Z,74.00
2019-02-10T07:23:34.385Z,74.28
2019-02-10T07:26:17.860Z,74.44
2019-02-10T07:29:03.888Z,75.15
2019-02-10T07:31:57.231Z,75.30
2019-02-10T07:35:06.014Z,75.38
2019-02-10T07:38:06.386Z,75.59
2019-02-10T07:40:56.898Z,76.02
2019-02-10T07:44:18.229Z,76.38
2019-02-10T07:47:37.398Z,76.57
2019-02-10T07:50:43.751Z,76.58
2019-02-10T07:53:41.601Z,76.70
2019-02-10T07:56:46.262Z,76.04
2019-02-10T07:59:44.117Z,76.21
2019-02-10T08:02:52.504Z,75.76
2019-02-10T08:06:16.437Z,76.04
2019-02-10T08:09:29.551Z,76.28
2019-02-10T08:12:19.782Z,76.12
2019-02-10T08:15:08.102Z,75.90
2019-02-10T08:17:51.031Z,75.48
2019-02-10T08:20:49.652Z,75.32
2019-02-10T08:24:13.395Z,74.88
2019-02-10T08:27:07.067Z,74.09
2019-02-10T08:30:28.127Z,74.28
2019-02-10T08:33:47.224Z,74.47
2019-02-10T08:36:45.301Z,74.62
2019-02-10T08:39:50.584Z,74.60
2019-02-10T08:42:49.722Z,74.57
2019-02-10T08:45:41.629Z,74.72
2019-02-10T08:48:46.069Z,75.37
2019-02-10T08:51:49.347Z,76.11
2019-02-10T08:54:15.970Z,76.46
2019-02-10T08:56:42.859Z,76.04
2019-02-10T08:59:09.430Z,76.38
2019-02-10T09:01:36.394Z,77.27
2019-02-10T09:04:03.016Z,77.29
2019-02-10T09:06:29.751Z,76.88
2019-02-10T09:09:02.457Z,76.21
2019-02-10T09:11:24.974Z,76.95
2019-02-10T09:13:51.526Z,76.90
2019-02-10T09:16:18.141Z,77.42
2019-02-10T09:18:44.678Z,76.95
2019-02-10T09:21:11.807Z,77.00
2019-02-10T09:23:38.607Z,76.41
2019-02-10T09:26:06.012Z,76.61
2019-02-10T09:28:34.200Z,76.75
2019-02-10T09:31:00.958Z,76.68
2019-02-10T09:33:27.580Z,75.95
2019-02-10T09:35:54.198Z,76.18
2019-02-10T09:38:20.770Z,75.18
2019-02-10T09:40:47.394Z,74.63
2019-02-10T09:43:14.448Z,74.91
2019-02-10T09:45:41.149Z,73.62
2019-02-10T09:48:07.785Z,73.43
2019-02-10T09:50:34.444Z,72.91
2019-02-10T09:53:01.093Z,72.54
2019-02-10T09:55:27.693Z,72.19
2019-02-10T09:57:54.704Z,71.89
2019-02-10T10:00:21.332Z,71.31
2019-02-10T10:02:48.396Z,71.74
2019-02-10T10:05:15.050Z,71.01
2019-02-10T10:07:41.854Z,70.51
2019-02-10T10:10:09.801Z,70.31
2019-02-10T10:12:38.636Z,69.99
2019-02-10T10:15:07.103Z,70.01
2019-02-10T10:17:34.005Z,69.79
2019-02-10T10:20:00.748Z,69.75
2019-02-10T10:22:28.000Z,69.56
2019-02-10T10:24:56.852Z,68.20
2019-02-10T10:27:23.464Z,68.06
2019-02-10T10:29:50.028Z,68.33
2019-02-10T10:32:16.882Z,67.98
2019-02-10T10:34:43.473Z,68.22
2019-02-10T10:37:10.133Z,67.71
2019-02-10T10:39:36.661Z,68.63
2019-02-10T10:42:07.701Z,68.26
2019-02-10T10:44:37.460Z,68.69
2019-02-10T10:47:04.100Z,69.20
2019-02-10T10:49:30.948Z,69.51
2019-02-10T10:51:57.671Z,70.34
2019-02-10T10:54:24.211Z,70.28
2019-02-10T10:56:50.758Z,70.96
2019-02-10T10:59:17.559Z,71.92
2019-02-10T11:01:44.152Z,71.21
2019-02-10T11:04:13.358Z,72.30
2019-02-10T11:06:40.112Z,72.20
2019-02-10T11:09:07.149Z,72.19
2019-02-10T11:11:34.164Z,72.81
2019-02-10T11:14:01.244Z,72.79
2019-02-10T11:16:28.225Z,73.12
2019-02-10T11:18:56.224Z,72.33
2019-02-10T11:21:23.070Z,72.44
2019-02-10T11:23:55.280Z,71.70
2019-02-10T11:26:22.468Z,71.63
2019-02-10T11:28:49.971Z,70.96
2019-02-10T11:31:17.262Z,70.27
2019-02-10T11:33:47.041Z,71.41
2019-02-10T11:36:14.082Z,72.15
2019-02-10T11:38:42.910Z,70.79
2019-02-10T11:41:09.490Z,70.20
2019-02-10T11:43:36.406Z,71.17
2019-02-10T11:46:24.247Z,70.42
2019-02-10T11:48:53.013Z,71.43
2019-02-10T11:51:26.570Z,69.91
2019-02-10T11:54:06.713Z,70.25
2019-02-10T11:56:34.169Z,69.75
2019-02-10T11:59:25.463Z,68.62
2019-02-10T12:01:56.636Z,69.41
2019-02-10T12:04:27.201Z,71.64
2019-02-10T12:06:53.885Z,70.85
2019-02-10T12:09:20.846Z,69.70
2019-02-10T12:11:47.595Z,69.87
2019-02-10T12:14:15.733Z,68.76
2019-02-10T12:16:42.884Z,69.65
2019-02-10T12:19:10.061Z,69.10
2019-02-10T12:21:36.735Z,68.67
2019-02-10T12:24:03.588Z,70.85
2019-02-10T12:26:30.346Z,71.24
2019-02-10T12:28:57.068Z,72.48
2019-02-10T12:31:23.807Z,71.91
2019-02-10T12:33:50.545Z,71.54
2019-02-10T12:36:17.554Z,71.81
2019-02-10T12:38:44.418Z,71.66
2019-02-10T12:41:11.498Z,70.90
2019-02-10T12:43:39.201Z,70.68
2019-02-10T12:46:05.968Z,70.64
2019-02-10T12:48:33.129Z,71.10
2019-02-10T12:51:01.351Z,71.28
2019-02-10T12:53:28.668Z,70.87
2019-02-10T12:55:55.347Z,71.63
2019-02-10T12:58:22.285Z,71.91
2019-02-10T13:00:49.047Z,71.29
2019-02-10T13:03:18.290Z,72.15
2019-02-10T13:05:45.410Z,72.33
2019-02-10T13:08:11.998Z,73.10
2019-02-10T13:10:38.626Z,73.32
2019-02-10T13:13:05.905Z,74.28
2019-02-10T13:15:32.695Z,74.21
2019-02-10T13:18:00.005Z,74.48
2019-02-10T13:20:26.757Z,74.95
2019-02-10T13:22:53.483Z,74.37
2019-02-10T13:25:22.049Z,74.47
2019-02-10T13:27:52.916Z,74.31
2019-02-10T13:30:19.994Z,74.68
2019-02-10T13:32:47.826Z,74.42
2019-02-10T13:35:15.220Z,74.27
2019-02-10T13:37:45.273Z,75.41
2019-02-10T13:40:18.372Z,75.51
2019-02-10T13:42:46.210Z,75.51
2019-02-10T13:45:23.308Z,75.83
2019-02-10T13:47:51.541Z,76.32
2019-02-10T13:50:18.440Z,76.97
2019-02-10T13:52:45.211Z,77.36
2019-02-10T13:55:12.053Z,78.06
2019-02-10T13:57:39.314Z,78.07
2019-02-10T14:00:09.788Z,79.22
2019-02-10T14:02:36.439Z,79.78
2019-02-10T14:05:03.658Z,80.04
2019-02-10T14:07:30.401Z,80.76
2019-02-10T14:09:57.018Z,81.80
2019-02-10T14:12:24.287Z,82.51
2019-02-10T14:14:51.184Z,82.80
2019-02-10T14:17:18.206Z,82.76
2019-02-10T14:19:45.303Z,83.87
2019-02-10T14:22:13.031Z,84.18
2019-02-10T14:24:39.899Z,83.94
2019-02-10T14:27:14.108Z,84.91
2019-02-10T14:29:42.231Z,84.57
2019-02-10T14:32:09.019Z,84.32
2019-02-10T14:34:36.215Z,84.89
2019-02-10T14:37:02.900Z,85.33
2019-02-10T14:39:29.533Z,85.46
2019-02-10T14:41:56.235Z,85.82
2019-02-10T14:44:22.837Z,85.91
2019-02-10T14:46:49.802Z,85.35
2019-02-10T14:49:16.619Z,85.28
2019-02-10T14:51:43.312Z,85.19
2019-02-10T14:54:09.871Z,85.53
2019-02-10T14:56:36.696Z,85.01
2019-02-10T14:59:03.290Z,84.54
2019-02-10T15:01:30.229Z,84.52
2019-02-10T15:03:56.945Z,84.19
2019-02-10T15:06:23.771Z,83.43
2019-02-10T15:08:50.396Z,83.65
2019-02-10T15:11:17.092Z,84.03
2019-02-10T15:13:43.778Z,83.65
2019-02-10T15:16:10.428Z,84.30
2019-02-10T15:18:38.185Z,84.23
2019-02-10T15:21:05.372Z,84.34
2019-02-10T15:23:31.907Z,85.11
2019-02-10T15:25:58.769Z,85.46
2019-02-10T15:28:25.495Z,86.22
2019-02-10T15:30:52.200Z,86.85
2019-02-10T15:33:18.919Z,87.11
2019-02-10T15:35:45.869Z,87.54
2019-02-10T15:38:13.403Z,88.13
2019-02-10T15:40:40.755Z,88.65
2019-02-10T15:43:07.686Z,88.59
2019-02-10T15:45:34.548Z,88.61
2019-02-10T15:48:01.212Z,88.91
2019-02-10T15:50:27.818Z,89.12
2019-02-10T15:52:54.482Z,89.13
2019-02-10T15:55:21.439Z,88.64
2019-02-10T15:57:48.101Z,88.49
2019-02-10T16:00:17.202Z,87.94
2019-02-10T16:02:43.872Z,87.67
2019-02-10T16:05:10.527Z,87.39
2019-02-10T16:07:37.437Z,87.80
2019-02-10T16:10:05.261Z,88.73
2019-02-10T16:12:31.957Z,89.69
2019-02-10T16:14:58.551Z,90.74
2019-02-10T16:17:29.141Z,92.11
2019-02-10T16:19:55.685Z,92.91
2019-02-10T16:22:22.286Z,93.65
2019-02-10T16:24:49.928Z,93.35
2019-02-10T16:27:16.579Z,93.79
2019-02-10T16:29:43.084Z,93.64
2019-02-10T16:32:09.726Z,93.92
2019-02-10T16:34:36.409Z,94.26
2019-02-10T16:37:04.954Z,92.16
2019-02-10T16:39:31.883Z,88.49
2019-02-10T16:41:58.426Z,86.21
2019-02-10T16:44:24.992Z,86.35
2019-02-10T16:46:52.005Z,87.06
2019-02-10T16:49:24.632Z,86.91
2019-02-10T16:51:54.986Z,87.08
2019-02-10T16:54:22.793Z,85.84
2019-02-10T16:56:49.807Z,84.84
2019-02-10T16:59:16.410Z,84.22
2019-02-10T17:01:43.472Z,84.36
2019-02-10T17:04:10.249Z,82.89
2019-02-10T17:06:37.013Z,82.54
2019-02-10T17:09:04.361Z,81.61
2019-02-10T17:11:31.310Z,81.91
2019-02-10T17:13:58.127Z,82.77
2019-02-10T17:16:24.700Z,82.81
2019-02-10T17:18:51.250Z,82.04
2019-02-10T17:21:17.821Z,82.42
2019-02-10T17:23:44.552Z,82.16
2019-02-10T17:26:11.111Z,83.07
2019-02-10T17:28:37.812Z,82.73
2019-02-10T17:31:04.339Z,82.96
2019-02-10T17:33:30.943Z,83.14
2019-02-10T17:35:57.463Z,83.36
2019-02-10T17:38:24.021Z,83.07
2019-02-10T17:40:59.432Z,82.45
2019-02-10T17:43:28.150Z,82.81
2019-02-10T17:45:55.113Z,81.38
2019-02-10T17:48:21.789Z,81.85
2019-02-10T17:50:49.563Z,81.64
2019-02-10T17:53:17.472Z,81.98
2019-02-10T17:55:45.483Z,81.58
2019-02-10T17:58:12.209Z,80.40
2019-02-10T18:00:42.841Z,80.46
2019-02-10T18:03:09.470Z,79.69
2019-02-10T18:05:36.229Z,79.89
2019-02-10T18:08:02.947Z,79.79
2019-02-10T18:10:29.711Z,78.98
2019-02-10T18:12:56.292Z,79.64
2019-02-10T18:15:51.219Z,79.16
2019-02-10T18:18:49.674Z,79.60
2019-02-10T18:21:45.096Z,78.94
2019-02-10T18:24:18.313Z,78.93
2019-02-10T18:26:52.097Z,79.36
2019-02-10T18:29:39.581Z,80.37
2019-02-10T18:32:30.792Z,80.30
2019-02-10T18:35:13.873Z,79.83
2019-02-10T18:38:06.126Z,79.38
2019-02-10T18:40:55.159Z,78.64
2019-02-10T18:43:34.226Z,77.92
2019-02-10T18:46:17.717Z,76.48
2019-02-10T18:48:51.108Z,76.10
2019-02-10T18:51:32.695Z,76.25
2019-02-10T18:54:21.537Z,75.91
2019-02-10T18:57:01.074Z,76.53
2019-02-10T18:59:47.539Z,76.19
2019-02-10T19:02:26.209Z,76.44
2019-02-10T19:05:21.509Z,76.68
2019-02-10T19:07:57.733Z,76.59
2019-02-10T19:10:52.025Z,76.53
2019-02-10T19:13:29.160Z,77.13
2019-02-10T19:16:14.177Z,76.88
2019-02-10T19:18:49.045Z,76.33
2019-02-10T19:21:27.818Z,76.63
2019-02-10T19:24:06.465Z,76.44
2019-02-10T19:26:43.886Z,76.48
2019-02-10T19:29:30.498Z,77.35
2019-02-10T19:32:15.633Z,77.21
2019-02-10T19:34:57.896Z,77.29
2019-02-10T19:37:50.796Z,77.00
2019-02-10T19:40:26.404Z,75.97
2019-02-10T19:43:02.006Z,75.48
2019-02-10T19:45:48.188Z,75.17
2019-02-10T19:48:58.735Z,75.09
2019-02-10T19:51:57.671Z,75.15
2019-02-10T19:54:44.571Z,74.79
2019-02-10T19:57:30.208Z,74.92
2019-02-10T20:00:22.488Z,74.74
2019-02-10T20:03:01.378Z,75.06
2019-02-10T20:05:49.680Z,75.45
2019-02-10T20:08:37.530Z,75.84
2019-02-10T20:11:24.289Z,75.94
2019-02-10T20:14:06.216Z,75.58
2019-02-10T20:16:53.716Z,75.90
2019-02-10T20:19:36.618Z,76.03
2019-02-10T20:22:19.151Z,76.66
2019-02-10T20:25:09.840Z,76.48
2019-02-10T20:27:52.884Z,76.60
2019-02-10T20:30:57.080Z,76.92
2019-02-10T20:33:49.086Z,76.96
2019-02-10T20:36:34.356Z,77.58
2019-02-10T20:39:36.087Z,77.73
2019-02-10T20:42:29.813Z,77.99
2019-02-10T20:45:30.601Z,77.85
2019-02-10T20:48:15.405Z,77.54
2019-02-10T20:51:06.050Z,77.39
2019-02-10T20:53:52.494Z,77.10
2019-02-10T20:56:46.578Z,77.23
2019-02-10T20:59:33.814Z,77.37
2019-02-10T21:02:11.628Z,77.10
2019-02-10T21:04:47.548Z,76.73
2019-02-10T21:07:31.049Z,76.65
2019-02-10T21:10:21.787Z,76.21
2019-02-10T21:13:11.880Z,75.52
2019-02-10T21:15:53.542Z,75.13
2019-02-10T21:18:42.755Z,75.17
2019-02-10T21:21:36.558Z,75.50
2019-02-10T21:24:13.684Z,75.27
2019-02-10T21:26:48.759Z,75.51
2019-02-10T21:29:55.977Z,74.74
2019-02-10T21:32:31.264Z,74.48
2019-02-10T21:35:18.414Z,74.35
2019-02-10T21:38:08.404Z,73.25
2019-02-10T21:41:06.396Z,73.81
2019-02-10T21:43:55.362Z,74.33
2019-02-10T21:46:39.687Z,74.00
2019-02-10T21:49:08.763Z,74.25
2019-02-10T21:51:35.526Z,73.88
2019-02-10T21:54:02.591Z,74.29
2019-02-10T21:56:30.134Z,74.19
2019-02-10T21:58:56.716Z,73.79
2019-02-10T22:01:23.359Z,73.70
2019-02-10T22:03:50.010Z,74.02
2019-02-10T22:06:16.765Z,73.84
2019-02-10T22:08:43.348Z,73.81
2019-02-10T22:11:10.036Z,74.36
2019-02-10T22:13:36.870Z,74.50
2019-02-10T22:16:03.643Z,74.40
2019-02-10T22:18:30.361Z,74.28
2019-02-10T22:20:56.882Z,74.18
2019-02-10T22:23:23.567Z,74.75
2019-02-10T22:25:50.165Z,75.46
2019-02-10T22:28:17.081Z,77.52
2019-02-10T22:30:44.039Z,79.00
2019-02-10T22:33:10.876Z,79.27
2019-02-10T22:35:37.914Z,81.14
2019-02-10T22:38:04.637Z,81.45
2019-02-10T22:40:31.607Z,81.79
2019-02-10T22:42:58.586Z,82.41
2019-02-10T22:45:25.150Z,82.61
2019-02-10T22:47:53.908Z,83.57
2019-02-10T22:50:20.515Z,84.20
2019-02-10T22:52:47.069Z,84.19
2019-02-10T22:55:13.651Z,84.86
2019-02-10T22:58:05.655Z,85.13
2019-02-10T23:04:35.356Z,84.54
2019-02-10T23:07:02.265Z,85.77
2019-02-10T23:09:28.970Z,85.20
2019-02-10T23:11:55.745Z,86.07
2019-02-10T23:14:22.548Z,85.30
2019-02-10T23:16:51.136Z,85.21
2019-02-10T23:19:17.849Z,85.17
2019-02-10T23:21:48.642Z,85.31
2019-02-10T23:24:17.640Z,84.95
2019-02-10T23:26:44.322Z,84.85
2019-02-10T23:29:10.840Z,85.33
2019-02-10T23:31:37.706Z,85.32
2019-02-10T23:34:06.135Z,86.05
2019-02-10T23:36:32.606Z,85.92
2019-02-10T23:38:59.245Z,85.73
2019-02-10T23:41:25.745Z,86.10
2019-02-10T23:43:52.274Z,85.63
2019-02-10T23:46:18.788Z,85.97
2019-02-10T23:48:45.443Z,85.74
2019-02-10T23:51:11.980Z,85.76
2019-02-10T23:53:38.835Z,85.99
2019-02-10T23:56:05.329Z,85.70
2019-02-10T23:58:31.872Z,85.42
